sensor_id;sensor_type;location;lat;lon;timestamp;temperature;humidity
32139;DHT22;18644;48.700;9.210;2023-07-20T00:00:58;23.00;40.30
32139;DHT22;18644;48.700;9.210;2023-07-20T00:03:26;23.00;40.60
32139;DHT22;18644;48.700;9.210;2023-07-20T00:05:53;22.90;40.50
32139;DHT22;18644;48.700;9.210;2023-07-20T00:08:20;22.90;40.40
32139;DHT22;18644;48.700;9.210;2023-07-20T00:10:47;22.80;40.30
32139;DHT22;18644;48.700;9.210;2023-07-20T00:13:14;22.70;40.30
32139;DHT22;18644;48.700;9.210;2023-07-20T00:15:44;22.70;40.30
32139;DHT22;18644;48.700;9.210;2023-07-20T00:18:11;22.60;40.40
32139;DHT22;18644;48.700;9.210;2023-07-20T00:20:39;22.60;40.40
32139;DHT22;18644;48.700;9.210;2023-07-20T00:23:06;22.60;40.50
32139;DHT22;18644;48.700;9.210;2023-07-20T00:25:34;22.50;40.60
32139;DHT22;18644;48.700;9.210;2023-07-20T00:28:00;22.50;40.90
32139;DHT22;18644;48.700;9.210;2023-07-20T00:30:27;22.40;40.80
32139;DHT22;18644;48.700;9.210;2023-07-20T00:32:54;22.40;40.80
32139;DHT22;18644;48.700;9.210;2023-07-20T00:35:21;22.30;40.90
32139;DHT22;18644;48.700;9.210;2023-07-20T00:37:49;22.30;41.10
32139;DHT22;18644;48.700;9.210;2023-07-20T00:40:16;22.20;41.20
32139;DHT22;18644;48.700;9.210;2023-07-20T00:42:43;22.20;41.60
32139;DHT22;18644;48.700;9.210;2023-07-20T00:45:10;22.10;41.90
32139;DHT22;18644;48.700;9.210;2023-07-20T00:47:37;22.10;42.00
32139;DHT22;18644;48.700;9.210;2023-07-20T00:50:05;22.00;42.10
32139;DHT22;18644;48.700;9.210;2023-07-20T00:52:33;21.90;42.40
32139;DHT22;18644;48.700;9.210;2023-07-20T00:55:01;21.80;42.60
32139;DHT22;18644;48.700;9.210;2023-07-20T00:57:28;21.70;42.70
32139;DHT22;18644;48.700;9.210;2023-07-20T00:59:56;21.70;42.80
32139;DHT22;18644;48.700;9.210;2023-07-20T01:02:23;21.50;42.90
32139;DHT22;18644;48.700;9.210;2023-07-20T01:04:50;21.50;43.00
32139;DHT22;18644;48.700;9.210;2023-07-20T01:07:24;21.40;43.20
32139;DHT22;18644;48.700;9.210;2023-07-20T01:09:59;21.40;43.30
32139;DHT22;18644;48.700;9.210;2023-07-20T01:12:35;21.30;43.30
32139;DHT22;18644;48.700;9.210;2023-07-20T01:15:06;21.30;43.40
32139;DHT22;18644;48.700;9.210;2023-07-20T01:17:34;21.20;43.40
32139;DHT22;18644;48.700;9.210;2023-07-20T01:20:01;21.20;43.50
32139;DHT22;18644;48.700;9.210;2023-07-20T01:22:45;21.10;43.60
32139;DHT22;18644;48.700;9.210;2023-07-20T01:25:31;21.10;44.00
32139;DHT22;18644;48.700;9.210;2023-07-20T01:28:37;21.10;44.00
32139;DHT22;18644;48.700;9.210;2023-07-20T01:31:21;21.00;44.10
32139;DHT22;18644;48.700;9.210;2023-07-20T01:33:52;20.90;43.80
32139;DHT22;18644;48.700;9.210;2023-07-20T01:36:22;20.90;43.80
32139;DHT22;18644;48.700;9.210;2023-07-20T01:38:51;20.90;44.00
32139;DHT22;18644;48.700;9.210;2023-07-20T01:41:18;20.80;44.10
32139;DHT22;18644;48.700;9.210;2023-07-20T01:43:46;20.80;44.10
32139;DHT22;18644;48.700;9.210;2023-07-20T01:46:13;20.80;44.10
32139;DHT22;18644;48.700;9.210;2023-07-20T01:48:41;20.80;44.30
32139;DHT22;18644;48.700;9.210;2023-07-20T01:51:08;20.70;44.30
32139;DHT22;18644;48.700;9.210;2023-07-20T01:53:35;20.80;44.40
32139;DHT22;18644;48.700;9.210;2023-07-20T01:56:02;20.70;44.30
32139;DHT22;18644;48.700;9.210;2023-07-20T01:58:29;20.70;44.40
32139;DHT22;18644;48.700;9.210;2023-07-20T02:00:56;20.60;44.40
32139;DHT22;18644;48.700;9.210;2023-07-20T02:03:23;20.60;44.50
32139;DHT22;18644;48.700;9.210;2023-07-20T02:05:53;20.60;44.60
32139;DHT22;18644;48.700;9.210;2023-07-20T02:08:20;20.60;44.80
32139;DHT22;18644;48.700;9.210;2023-07-20T02:10:47;20.50;44.80
32139;DHT22;18644;48.700;9.210;2023-07-20T02:13:14;20.50;44.90
32139;DHT22;18644;48.700;9.210;2023-07-20T02:15:41;20.40;45.00
32139;DHT22;18644;48.700;9.210;2023-07-20T02:18:08;20.40;45.10
32139;DHT22;18644;48.700;9.210;2023-07-20T02:20:35;20.40;45.40
32139;DHT22;18644;48.700;9.210;2023-07-20T02:23:03;20.30;45.40
32139;DHT22;18644;48.700;9.210;2023-07-20T02:25:30;20.20;45.60
32139;DHT22;18644;48.700;9.210;2023-07-20T02:27:57;20.10;45.60
32139;DHT22;18644;48.700;9.210;2023-07-20T02:30:24;20.10;45.70
32139;DHT22;18644;48.700;9.210;2023-07-20T02:32:52;20.00;45.80
32139;DHT22;18644;48.700;9.210;2023-07-20T02:35:19;19.90;45.80
32139;DHT22;18644;48.700;9.210;2023-07-20T02:37:46;19.80;46.10
32139;DHT22;18644;48.700;9.210;2023-07-20T02:40:14;19.70;46.20
32139;DHT22;18644;48.700;9.210;2023-07-20T02:42:41;19.60;46.40
32139;DHT22;18644;48.700;9.210;2023-07-20T02:45:09;19.50;46.50
32139;DHT22;18644;48.700;9.210;2023-07-20T02:47:36;19.40;46.60
32139;DHT22;18644;48.700;9.210;2023-07-20T02:50:05;19.30;46.80
32139;DHT22;18644;48.700;9.210;2023-07-20T02:52:33;19.30;47.00
32139;DHT22;18644;48.700;9.210;2023-07-20T02:55:00;19.20;47.10
32139;DHT22;18644;48.700;9.210;2023-07-20T02:57:31;19.10;47.10
32139;DHT22;18644;48.700;9.210;2023-07-20T02:59:58;19.00;47.30
32139;DHT22;18644;48.700;9.210;2023-07-20T03:02:25;19.00;47.50
32139;DHT22;18644;48.700;9.210;2023-07-20T03:04:51;18.90;47.70
32139;DHT22;18644;48.700;9.210;2023-07-20T03:07:19;18.80;47.80
32139;DHT22;18644;48.700;9.210;2023-07-20T03:09:46;18.80;48.00
32139;DHT22;18644;48.700;9.210;2023-07-20T03:12:13;18.70;48.00
32139;DHT22;18644;48.700;9.210;2023-07-20T03:14:42;18.70;48.10
32139;DHT22;18644;48.700;9.210;2023-07-20T03:17:08;18.70;48.10
32139;DHT22;18644;48.700;9.210;2023-07-20T03:19:35;18.60;48.10
32139;DHT22;18644;48.700;9.210;2023-07-20T03:22:02;18.70;48.30
32139;DHT22;18644;48.700;9.210;2023-07-20T03:24:30;18.70;48.40
32139;DHT22;18644;48.700;9.210;2023-07-20T03:26:56;18.60;48.40
32139;DHT22;18644;48.700;9.210;2023-07-20T03:29:23;18.70;48.50
32139;DHT22;18644;48.700;9.210;2023-07-20T03:31:52;18.70;48.60
32139;DHT22;18644;48.700;9.210;2023-07-20T03:34:19;18.70;48.70
32139;DHT22;18644;48.700;9.210;2023-07-20T03:36:45;18.70;48.80
32139;DHT22;18644;48.700;9.210;2023-07-20T03:39:12;18.70;48.90
32139;DHT22;18644;48.700;9.210;2023-07-20T03:41:39;18.70;48.90
32139;DHT22;18644;48.700;9.210;2023-07-20T03:44:06;18.70;49.00
32139;DHT22;18644;48.700;9.210;2023-07-20T03:46:33;18.60;49.00
32139;DHT22;18644;48.700;9.210;2023-07-20T03:49:01;18.60;49.60
32139;DHT22;18644;48.700;9.210;2023-07-20T03:51:28;18.60;49.10
32139;DHT22;18644;48.700;9.210;2023-07-20T03:53:55;18.50;49.30
32139;DHT22;18644;48.700;9.210;2023-07-20T03:56:22;18.50;49.40
32139;DHT22;18644;48.700;9.210;2023-07-20T03:58:49;18.40;49.60
32139;DHT22;18644;48.700;9.210;2023-07-20T04:01:16;18.40;49.80
32139;DHT22;18644;48.700;9.210;2023-07-20T04:03:43;18.40;50.00
32139;DHT22;18644;48.700;9.210;2023-07-20T04:06:12;18.30;50.10
32139;DHT22;18644;48.700;9.210;2023-07-20T04:08:39;18.30;50.20
32139;DHT22;18644;48.700;9.210;2023-07-20T04:11:07;18.20;50.30
32139;DHT22;18644;48.700;9.210;2023-07-20T04:13:33;18.20;50.50
32139;DHT22;18644;48.700;9.210;2023-07-20T04:16:00;18.20;50.60
32139;DHT22;18644;48.700;9.210;2023-07-20T04:18:28;18.10;50.80
32139;DHT22;18644;48.700;9.210;2023-07-20T04:20:54;18.10;51.20
32139;DHT22;18644;48.700;9.210;2023-07-20T04:23:23;18.10;51.50
32139;DHT22;18644;48.700;9.210;2023-07-20T04:25:50;18.10;51.80
32139;DHT22;18644;48.700;9.210;2023-07-20T04:28:17;18.10;52.00
32139;DHT22;18644;48.700;9.210;2023-07-20T04:30:44;18.20;52.10
32139;DHT22;18644;48.700;9.210;2023-07-20T04:33:11;18.20;51.90
32139;DHT22;18644;48.700;9.210;2023-07-20T04:35:51;18.20;51.70
32139;DHT22;18644;48.700;9.210;2023-07-20T04:38:19;18.30;52.20
32139;DHT22;18644;48.700;9.210;2023-07-20T04:40:49;18.40;52.20
32139;DHT22;18644;48.700;9.210;2023-07-20T04:43:17;18.40;52.60
32139;DHT22;18644;48.700;9.210;2023-07-20T04:45:44;18.50;53.00
32139;DHT22;18644;48.700;9.210;2023-07-20T04:48:12;18.60;53.30
32139;DHT22;18644;48.700;9.210;2023-07-20T04:50:41;18.70;53.40
32139;DHT22;18644;48.700;9.210;2023-07-20T04:53:09;18.80;53.30
32139;DHT22;18644;48.700;9.210;2023-07-20T04:55:36;18.80;53.00
32139;DHT22;18644;48.700;9.210;2023-07-20T04:58:05;19.00;52.90
32139;DHT22;18644;48.700;9.210;2023-07-20T05:00:33;19.00;52.60
32139;DHT22;18644;48.700;9.210;2023-07-20T05:03:00;19.10;52.70
32139;DHT22;18644;48.700;9.210;2023-07-20T05:05:27;19.20;52.70
32139;DHT22;18644;48.700;9.210;2023-07-20T05:07:54;19.30;52.60
32139;DHT22;18644;48.700;9.210;2023-07-20T05:10:21;19.40;52.40
32139;DHT22;18644;48.700;9.210;2023-07-20T05:12:48;19.50;52.50
32139;DHT22;18644;48.700;9.210;2023-07-20T05:15:16;19.60;52.60
32139;DHT22;18644;48.700;9.210;2023-07-20T05:17:43;19.70;52.80
32139;DHT22;18644;48.700;9.210;2023-07-20T05:20:10;19.80;52.90
32139;DHT22;18644;48.700;9.210;2023-07-20T05:22:38;19.90;52.90
32139;DHT22;18644;48.700;9.210;2023-07-20T05:25:06;20.00;52.90
32139;DHT22;18644;48.700;9.210;2023-07-20T05:27:34;20.00;52.80
32139;DHT22;18644;48.700;9.210;2023-07-20T05:30:03;20.10;52.50
32139;DHT22;18644;48.700;9.210;2023-07-20T05:32:32;20.20;52.30
32139;DHT22;18644;48.700;9.210;2023-07-20T05:34:59;20.30;52.10
32139;DHT22;18644;48.700;9.210;2023-07-20T05:37:26;20.40;51.90
32139;DHT22;18644;48.700;9.210;2023-07-20T05:39:52;20.50;51.70
32139;DHT22;18644;48.700;9.210;2023-07-20T05:42:19;20.60;51.80
32139;DHT22;18644;48.700;9.210;2023-07-20T05:44:46;20.60;51.80
32139;DHT22;18644;48.700;9.210;2023-07-20T05:47:15;20.70;51.60
32139;DHT22;18644;48.700;9.210;2023-07-20T05:49:43;20.80;51.80
32139;DHT22;18644;48.700;9.210;2023-07-20T05:52:10;20.90;51.70
32139;DHT22;18644;48.700;9.210;2023-07-20T05:54:37;21.00;51.30
32139;DHT22;18644;48.700;9.210;2023-07-20T05:57:04;21.10;51.10
32139;DHT22;18644;48.700;9.210;2023-07-20T05:59:32;21.20;51.30
32139;DHT22;18644;48.700;9.210;2023-07-20T06:01:59;21.30;51.30
32139;DHT22;18644;48.700;9.210;2023-07-20T06:04:25;21.30;51.10
32139;DHT22;18644;48.700;9.210;2023-07-20T06:06:54;21.40;51.10
32139;DHT22;18644;48.700;9.210;2023-07-20T06:09:20;21.50;51.00
32139;DHT22;18644;48.700;9.210;2023-07-20T06:11:47;21.60;50.90
32139;DHT22;18644;48.700;9.210;2023-07-20T06:14:15;21.70;50.90
32139;DHT22;18644;48.700;9.210;2023-07-20T06:16:41;21.80;50.80
32139;DHT22;18644;48.700;9.210;2023-07-20T06:19:08;21.80;50.60
32139;DHT22;18644;48.700;9.210;2023-07-20T06:21:36;21.90;50.60
32139;DHT22;18644;48.700;9.210;2023-07-20T06:24:05;22.00;50.50
32139;DHT22;18644;48.700;9.210;2023-07-20T06:26:32;22.10;50.40
32139;DHT22;18644;48.700;9.210;2023-07-20T06:29:04;22.10;50.40
32139;DHT22;18644;48.700;9.210;2023-07-20T06:31:31;22.20;50.30
32139;DHT22;18644;48.700;9.210;2023-07-20T06:33:58;22.30;50.10
32139;DHT22;18644;48.700;9.210;2023-07-20T06:36:26;22.40;50.00
32139;DHT22;18644;48.700;9.210;2023-07-20T06:38:53;22.50;49.90
32139;DHT22;18644;48.700;9.210;2023-07-20T06:41:21;22.50;49.50
32139;DHT22;18644;48.700;9.210;2023-07-20T06:43:48;22.60;49.30
32139;DHT22;18644;48.700;9.210;2023-07-20T06:46:16;22.60;49.30
32139;DHT22;18644;48.700;9.210;2023-07-20T06:48:43;22.80;49.50
32139;DHT22;18644;48.700;9.210;2023-07-20T06:51:09;22.80;49.30
32139;DHT22;18644;48.700;9.210;2023-07-20T06:53:36;22.90;49.40
32139;DHT22;18644;48.700;9.210;2023-07-20T06:56:03;23.00;49.00
32139;DHT22;18644;48.700;9.210;2023-07-20T06:58:31;23.00;48.70
32139;DHT22;18644;48.700;9.210;2023-07-20T07:00:59;23.10;48.50
32139;DHT22;18644;48.700;9.210;2023-07-20T07:03:26;23.20;48.20
32139;DHT22;18644;48.700;9.210;2023-07-20T07:05:55;23.20;47.90
32139;DHT22;18644;48.700;9.210;2023-07-20T07:08:22;23.20;47.90
32139;DHT22;18644;48.700;9.210;2023-07-20T07:10:49;23.30;47.70
32139;DHT22;18644;48.700;9.210;2023-07-20T07:13:16;23.30;47.70
32139;DHT22;18644;48.700;9.210;2023-07-20T07:15:45;23.40;47.70
32139;DHT22;18644;48.700;9.210;2023-07-20T07:18:12;23.40;47.40
32139;DHT22;18644;48.700;9.210;2023-07-20T07:20:39;23.50;47.30
32139;DHT22;18644;48.700;9.210;2023-07-20T07:23:05;23.50;47.10
32139;DHT22;18644;48.700;9.210;2023-07-20T07:25:32;23.50;47.10
32139;DHT22;18644;48.700;9.210;2023-07-20T07:27:59;23.60;47.20
32139;DHT22;18644;48.700;9.210;2023-07-20T07:30:26;23.60;47.20
32139;DHT22;18644;48.700;9.210;2023-07-20T07:32:54;23.70;47.40
32139;DHT22;18644;48.700;9.210;2023-07-20T07:35:21;23.70;47.20
32139;DHT22;18644;48.700;9.210;2023-07-20T07:37:48;23.90;47.40
32139;DHT22;18644;48.700;9.210;2023-07-20T07:40:15;23.90;47.30
32139;DHT22;18644;48.700;9.210;2023-07-20T07:42:42;24.10;47.20
32139;DHT22;18644;48.700;9.210;2023-07-20T07:45:10;24.20;46.90
32139;DHT22;18644;48.700;9.210;2023-07-20T07:47:37;24.30;46.60
32139;DHT22;18644;48.700;9.210;2023-07-20T07:50:06;24.30;46.60
32139;DHT22;18644;48.700;9.210;2023-07-20T07:52:33;24.50;47.00
32139;DHT22;18644;48.700;9.210;2023-07-20T07:55:00;24.60;47.00
32139;DHT22;18644;48.700;9.210;2023-07-20T07:57:29;24.70;46.80
32139;DHT22;18644;48.700;9.210;2023-07-20T07:59:56;24.90;47.00
32139;DHT22;18644;48.700;9.210;2023-07-20T08:02:23;25.10;46.90
32139;DHT22;18644;48.700;9.210;2023-07-20T08:04:50;25.20;46.40
32139;DHT22;18644;48.700;9.210;2023-07-20T08:07:19;25.40;46.20
32139;DHT22;18644;48.700;9.210;2023-07-20T08:09:45;25.50;46.20
32139;DHT22;18644;48.700;9.210;2023-07-20T08:12:12;25.60;45.80
32139;DHT22;18644;48.700;9.210;2023-07-20T08:14:43;25.70;45.00
32139;DHT22;18644;48.700;9.210;2023-07-20T08:17:09;25.80;44.70
32139;DHT22;18644;48.700;9.210;2023-07-20T08:19:37;25.80;44.50
32139;DHT22;18644;48.700;9.210;2023-07-20T08:22:07;25.90;44.60
32139;DHT22;18644;48.700;9.210;2023-07-20T08:24:38;26.00;44.80
32139;DHT22;18644;48.700;9.210;2023-07-20T08:27:06;26.20;44.40
32139;DHT22;18644;48.700;9.210;2023-07-20T08:29:33;26.20;44.00
32139;DHT22;18644;48.700;9.210;2023-07-20T08:32:00;26.30;44.00
32139;DHT22;18644;48.700;9.210;2023-07-20T08:34:27;26.40;43.90
32139;DHT22;18644;48.700;9.210;2023-07-20T08:36:55;26.40;43.70
32139;DHT22;18644;48.700;9.210;2023-07-20T08:39:22;26.50;43.50
32139;DHT22;18644;48.700;9.210;2023-07-20T08:41:51;26.50;42.80
32139;DHT22;18644;48.700;9.210;2023-07-20T08:44:18;26.60;42.70
32139;DHT22;18644;48.700;9.210;2023-07-20T08:46:47;26.60;42.50
32139;DHT22;18644;48.700;9.210;2023-07-20T08:49:15;26.70;42.50
32139;DHT22;18644;48.700;9.210;2023-07-20T08:51:43;26.80;42.50
32139;DHT22;18644;48.700;9.210;2023-07-20T08:54:12;26.80;42.00
32139;DHT22;18644;48.700;9.210;2023-07-20T08:56:41;26.90;41.50
32139;DHT22;18644;48.700;9.210;2023-07-20T08:59:09;27.00;41.30
32139;DHT22;18644;48.700;9.210;2023-07-20T09:01:39;27.00;40.50
32139;DHT22;18644;48.700;9.210;2023-07-20T09:04:06;27.00;40.10
32139;DHT22;18644;48.700;9.210;2023-07-20T09:06:34;26.90;39.90
32139;DHT22;18644;48.700;9.210;2023-07-20T09:09:01;26.80;39.70
32139;DHT22;18644;48.700;9.210;2023-07-20T09:11:28;26.80;39.80
32139;DHT22;18644;48.700;9.210;2023-07-20T09:14:05;26.70;40.10
32139;DHT22;18644;48.700;9.210;2023-07-20T09:16:47;26.60;40.20
32139;DHT22;18644;48.700;9.210;2023-07-20T09:19:15;26.60;40.20
32139;DHT22;18644;48.700;9.210;2023-07-20T09:21:44;26.70;40.60
32139;DHT22;18644;48.700;9.210;2023-07-20T09:24:12;26.80;40.50
32139;DHT22;18644;48.700;9.210;2023-07-20T09:26:41;26.80;40.30
32139;DHT22;18644;48.700;9.210;2023-07-20T09:29:09;26.90;39.80
32139;DHT22;18644;48.700;9.210;2023-07-20T09:31:38;26.90;39.40
32139;DHT22;18644;48.700;9.210;2023-07-20T09:34:05;26.90;39.30
32139;DHT22;18644;48.700;9.210;2023-07-20T09:36:33;26.80;39.60
32139;DHT22;18644;48.700;9.210;2023-07-20T09:39:02;26.80;39.60
32139;DHT22;18644;48.700;9.210;2023-07-20T09:41:30;26.80;39.50
32139;DHT22;18644;48.700;9.210;2023-07-20T09:43:57;26.90;39.80
32139;DHT22;18644;48.700;9.210;2023-07-20T09:46:24;27.00;40.20
32139;DHT22;18644;48.700;9.210;2023-07-20T09:48:53;27.20;40.40
32139;DHT22;18644;48.700;9.210;2023-07-20T09:51:22;27.30;40.10
32139;DHT22;18644;48.700;9.210;2023-07-20T09:53:52;27.40;39.50
32139;DHT22;18644;48.700;9.210;2023-07-20T09:56:21;27.40;39.00
32139;DHT22;18644;48.700;9.210;2023-07-20T09:58:49;27.40;39.00
32139;DHT22;18644;48.700;9.210;2023-07-20T10:01:19;27.40;38.80
32139;DHT22;18644;48.700;9.210;2023-07-20T10:03:48;27.50;38.30
32139;DHT22;18644;48.700;9.210;2023-07-20T10:06:23;27.50;38.30
32139;DHT22;18644;48.700;9.210;2023-07-20T10:08:53;27.50;38.60
32139;DHT22;18644;48.700;9.210;2023-07-20T10:11:22;27.50;38.60
32139;DHT22;18644;48.700;9.210;2023-07-20T10:13:51;27.50;38.40
32139;DHT22;18644;48.700;9.210;2023-07-20T10:16:22;27.60;38.20
32139;DHT22;18644;48.700;9.210;2023-07-20T10:19:02;27.70;38.70
32139;DHT22;18644;48.700;9.210;2023-07-20T10:21:33;27.80;38.30
32139;DHT22;18644;48.700;9.210;2023-07-20T10:24:01;27.90;38.20
32139;DHT22;18644;48.700;9.210;2023-07-20T10:26:29;28.10;38.10
32139;DHT22;18644;48.700;9.210;2023-07-20T10:28:58;28.20;37.60
32139;DHT22;18644;48.700;9.210;2023-07-20T10:31:26;28.30;37.00
32139;DHT22;18644;48.700;9.210;2023-07-20T10:33:56;28.30;36.70
32139;DHT22;18644;48.700;9.210;2023-07-20T10:36:27;28.40;36.20
32139;DHT22;18644;48.700;9.210;2023-07-20T10:38:55;28.50;36.30
32139;DHT22;18644;48.700;9.210;2023-07-20T10:41:28;28.50;36.10
32139;DHT22;18644;48.700;9.210;2023-07-20T10:44:00;28.40;35.70
32139;DHT22;18644;48.700;9.210;2023-07-20T10:46:36;28.40;35.40
32139;DHT22;18644;48.700;9.210;2023-07-20T10:49:12;28.30;35.50
32139;DHT22;18644;48.700;9.210;2023-07-20T10:51:41;28.20;35.20
32139;DHT22;18644;48.700;9.210;2023-07-20T10:54:10;28.10;35.10
32139;DHT22;18644;48.700;9.210;2023-07-20T10:57:27;28.10;35.70
32139;DHT22;18644;48.700;9.210;2023-07-20T11:00:08;28.10;35.90
32139;DHT22;18644;48.700;9.210;2023-07-20T11:02:44;28.20;34.90
32139;DHT22;18644;48.700;9.210;2023-07-20T11:05:36;28.20;35.50
32139;DHT22;18644;48.700;9.210;2023-07-20T11:08:05;28.40;35.50
32139;DHT22;18644;48.700;9.210;2023-07-20T11:10:33;28.50;35.70
32139;DHT22;18644;48.700;9.210;2023-07-20T11:13:20;28.50;35.10
32139;DHT22;18644;48.700;9.210;2023-07-20T11:16:01;28.50;34.50
32139;DHT22;18644;48.700;9.210;2023-07-20T11:18:30;28.50;34.50
32139;DHT22;18644;48.700;9.210;2023-07-20T11:20:59;28.60;34.90
32139;DHT22;18644;48.700;9.210;2023-07-20T11:23:26;28.60;35.00
32139;DHT22;18644;48.700;9.210;2023-07-20T11:25:53;28.70;34.70
32139;DHT22;18644;48.700;9.210;2023-07-20T11:28:20;28.70;34.00
32139;DHT22;18644;48.700;9.210;2023-07-20T11:30:51;28.70;33.90
32139;DHT22;18644;48.700;9.210;2023-07-20T11:33:19;28.70;33.70
32139;DHT22;18644;48.700;9.210;2023-07-20T11:35:48;28.60;33.80
32139;DHT22;18644;48.700;9.210;2023-07-20T11:38:17;28.60;34.10
32139;DHT22;18644;48.700;9.210;2023-07-20T11:40:45;28.70;34.30
32139;DHT22;18644;48.700;9.210;2023-07-20T11:43:13;28.90;34.90
32139;DHT22;18644;48.700;9.210;2023-07-20T11:45:40;29.00;34.70
32139;DHT22;18644;48.700;9.210;2023-07-20T11:48:07;29.20;33.80
32139;DHT22;18644;48.700;9.210;2023-07-20T11:50:39;29.30;33.10
32139;DHT22;18644;48.700;9.210;2023-07-20T11:53:06;29.40;32.90
32139;DHT22;18644;48.700;9.210;2023-07-20T11:55:36;29.40;32.70
32139;DHT22;18644;48.700;9.210;2023-07-20T11:58:04;29.40;32.10
32139;DHT22;18644;48.700;9.210;2023-07-20T12:00:31;29.40;32.30
32139;DHT22;18644;48.700;9.210;2023-07-20T12:02:58;29.30;32.00
32139;DHT22;18644;48.700;9.210;2023-07-20T12:05:25;29.40;32.70
32139;DHT22;18644;48.700;9.210;2023-07-20T12:07:54;29.50;33.10
32139;DHT22;18644;48.700;9.210;2023-07-20T12:10:26;29.60;32.30
32139;DHT22;18644;48.700;9.210;2023-07-20T12:13:00;29.60;32.10
32139;DHT22;18644;48.700;9.210;2023-07-20T12:15:27;29.60;31.70
32139;DHT22;18644;48.700;9.210;2023-07-20T12:17:57;29.60;32.10
32139;DHT22;18644;48.700;9.210;2023-07-20T12:20:26;29.60;31.90
32139;DHT22;18644;48.700;9.210;2023-07-20T12:22:57;29.70;31.80
32139;DHT22;18644;48.700;9.210;2023-07-20T12:25:32;29.80;31.60
32139;DHT22;18644;48.700;9.210;2023-07-20T12:28:02;29.90;31.80
32139;DHT22;18644;48.700;9.210;2023-07-20T12:30:31;29.90;31.60
32139;DHT22;18644;48.700;9.210;2023-07-20T12:32:58;30.10;31.40
32139;DHT22;18644;48.700;9.210;2023-07-20T12:35:25;30.10;31.00
32139;DHT22;18644;48.700;9.210;2023-07-20T12:37:52;30.10;30.50
32139;DHT22;18644;48.700;9.210;2023-07-20T12:40:19;30.10;29.90
32139;DHT22;18644;48.700;9.210;2023-07-20T12:42:46;30.10;30.00
32139;DHT22;18644;48.700;9.210;2023-07-20T12:45:15;30.10;30.50
32139;DHT22;18644;48.700;9.210;2023-07-20T12:47:42;30.10;30.30
32139;DHT22;18644;48.700;9.210;2023-07-20T12:50:09;30.10;30.20
32139;DHT22;18644;48.700;9.210;2023-07-20T12:52:40;30.10;29.90
32139;DHT22;18644;48.700;9.210;2023-07-20T12:55:09;30.10;29.70
32139;DHT22;18644;48.700;9.210;2023-07-20T12:57:37;30.00;29.40
32139;DHT22;18644;48.700;9.210;2023-07-20T13:00:06;30.00;29.80
32139;DHT22;18644;48.700;9.210;2023-07-20T13:02:36;30.00;29.30
32139;DHT22;18644;48.700;9.210;2023-07-20T13:05:04;30.00;29.40
32139;DHT22;18644;48.700;9.210;2023-07-20T13:07:32;30.00;29.60
32139;DHT22;18644;48.700;9.210;2023-07-20T13:10:00;30.10;29.80
32139;DHT22;18644;48.700;9.210;2023-07-20T13:12:28;30.10;29.70
32139;DHT22;18644;48.700;9.210;2023-07-20T13:14:55;30.20;29.70
32139;DHT22;18644;48.700;9.210;2023-07-20T13:17:25;30.30;29.90
32139;DHT22;18644;48.700;9.210;2023-07-20T13:19:54;30.40;30.40
32139;DHT22;18644;48.700;9.210;2023-07-20T13:22:21;30.60;30.60
32139;DHT22;18644;48.700;9.210;2023-07-20T13:24:48;30.70;29.80
32139;DHT22;18644;48.700;9.210;2023-07-20T13:27:15;30.70;29.60
32139;DHT22;18644;48.700;9.210;2023-07-20T13:29:43;30.90;29.60
32139;DHT22;18644;48.700;9.210;2023-07-20T13:32:13;31.00;30.00
32139;DHT22;18644;48.700;9.210;2023-07-20T13:34:40;31.10;29.70
32139;DHT22;18644;48.700;9.210;2023-07-20T13:37:08;31.20;29.20
32139;DHT22;18644;48.700;9.210;2023-07-20T13:39:36;31.30;29.20
32139;DHT22;18644;48.700;9.210;2023-07-20T13:42:03;31.30;28.70
32139;DHT22;18644;48.700;9.210;2023-07-20T13:44:31;31.40;28.50
32139;DHT22;18644;48.700;9.210;2023-07-20T13:46:58;31.50;28.30
32139;DHT22;18644;48.700;9.210;2023-07-20T13:49:25;31.40;28.50
32139;DHT22;18644;48.700;9.210;2023-07-20T13:51:52;31.30;28.00
32139;DHT22;18644;48.700;9.210;2023-07-20T13:54:20;31.20;28.20
32139;DHT22;18644;48.700;9.210;2023-07-20T13:56:47;31.20;28.10
32139;DHT22;18644;48.700;9.210;2023-07-20T13:59:14;31.20;28.30
32139;DHT22;18644;48.700;9.210;2023-07-20T14:01:41;31.20;28.50
32139;DHT22;18644;48.700;9.210;2023-07-20T14:04:08;31.20;28.70
32139;DHT22;18644;48.700;9.210;2023-07-20T14:06:35;31.30;28.80
32139;DHT22;18644;48.700;9.210;2023-07-20T14:09:02;31.30;28.80
32139;DHT22;18644;48.700;9.210;2023-07-20T14:11:31;31.40;29.30
32139;DHT22;18644;48.700;9.210;2023-07-20T14:13:58;31.50;29.20
32139;DHT22;18644;48.700;9.210;2023-07-20T14:16:25;31.70;28.80
32139;DHT22;18644;48.700;9.210;2023-07-20T14:18:52;31.80;28.10
32139;DHT22;18644;48.700;9.210;2023-07-20T14:21:20;31.80;28.20
32139;DHT22;18644;48.700;9.210;2023-07-20T14:23:48;31.70;27.90
32139;DHT22;18644;48.700;9.210;2023-07-20T14:26:17;31.70;27.80
32139;DHT22;18644;48.700;9.210;2023-07-20T14:28:45;31.60;28.10
32139;DHT22;18644;48.700;9.210;2023-07-20T14:31:12;31.60;28.30
32139;DHT22;18644;48.700;9.210;2023-07-20T14:33:39;31.50;28.20
32139;DHT22;18644;48.700;9.210;2023-07-20T14:36:06;31.50;27.80
32139;DHT22;18644;48.700;9.210;2023-07-20T14:38:33;31.60;27.50
32139;DHT22;18644;48.700;9.210;2023-07-20T14:41:01;31.60;28.20
32139;DHT22;18644;48.700;9.210;2023-07-20T14:43:28;31.60;28.10
32139;DHT22;18644;48.700;9.210;2023-07-20T14:45:56;31.70;28.00
32139;DHT22;18644;48.700;9.210;2023-07-20T14:48:24;31.80;27.90
32139;DHT22;18644;48.700;9.210;2023-07-20T14:50:52;31.80;27.80
32139;DHT22;18644;48.700;9.210;2023-07-20T14:53:19;31.90;27.80
32139;DHT22;18644;48.700;9.210;2023-07-20T14:55:46;32.00;28.30
32139;DHT22;18644;48.700;9.210;2023-07-20T14:58:13;32.10;28.10
32139;DHT22;18644;48.700;9.210;2023-07-20T15:00:40;32.20;27.70
32139;DHT22;18644;48.700;9.210;2023-07-20T15:03:08;32.40;27.90
32139;DHT22;18644;48.700;9.210;2023-07-20T15:05:35;32.40;27.80
32139;DHT22;18644;48.700;9.210;2023-07-20T15:08:03;32.50;27.70
32139;DHT22;18644;48.700;9.210;2023-07-20T15:10:31;32.60;26.90
32139;DHT22;18644;48.700;9.210;2023-07-20T15:12:59;32.60;26.60
32139;DHT22;18644;48.700;9.210;2023-07-20T15:15:26;32.60;26.60
32139;DHT22;18644;48.700;9.210;2023-07-20T15:17:53;32.50;26.30
32139;DHT22;18644;48.700;9.210;2023-07-20T15:20:21;32.50;26.40
32139;DHT22;18644;48.700;9.210;2023-07-20T15:22:48;32.40;26.90
32139;DHT22;18644;48.700;9.210;2023-07-20T15:25:14;32.40;26.40
32139;DHT22;18644;48.700;9.210;2023-07-20T15:27:41;32.40;27.10
32139;DHT22;18644;48.700;9.210;2023-07-20T15:30:09;32.40;27.60
32139;DHT22;18644;48.700;9.210;2023-07-20T15:32:37;32.50;27.60
32139;DHT22;18644;48.700;9.210;2023-07-20T15:35:06;32.60;27.20
32139;DHT22;18644;48.700;9.210;2023-07-20T15:37:35;32.70;26.50